Time;durP1;ratioP1;P1;durP2;ratioP2;P2;SDS_P1;SDS_P2;PMS_P1;PMS_P2;Temp;Humidity;BMP_temperature;BMP_pressure;BME280_temperature;BME280_humidity;BME280_pressure;Samples;Min_cycle;Max_cycle;Signal;HPM_P1;HPM_P2
2021/11/15 00:00:28;;;;;;;72.53;34.50;;;;;;;7.88;63.60;101478.97;7383809;19;20107;-69
2021/11/15 00:03:21;;;;;;;74.45;34.80;;;;;;;7.86;63.34;101485.97;7381808;19;20488;-70
2021/11/15 00:06:08;;;;;;;81.63;37.22;;;;;;;7.94;63.27;101484.19;7383563;19;20111;-72
2021/11/15 00:08:56;;;;;;;76.28;34.30;;;;;;;8.00;63.49;101478.91;7383179;19;20022;-71
2021/11/15 00:11:44;;;;;;;68.13;32.55;;;;;;;8.02;63.18;101484.97;7381670;19;20060;-70
2021/11/15 00:14:31;;;;;;;84.22;36.10;;;;;;;8.03;63.15;101488.44;7383685;19;20025;-70
2021/11/15 00:17:19;;;;;;;83.80;37.15;;;;;;;8.07;63.12;101485.78;7382580;19;20066;-71
2021/11/15 00:20:11;;;;;;;76.80;34.38;;;;;;;8.01;62.97;101496.28;7382445;19;20030;-69
2021/11/15 00:22:58;;;;;;;;;;;;;;;7.86;63.19;101494.66;7382464;19;20398;-70
2021/11/15 00:25:45;;;;;;;80.68;34.50;;;;;;;7.92;63.30;101492.03;7385235;19;19925;-70
2021/11/15 00:28:33;;;;;;;70.72;31.65;;;;;;;7.85;63.50;101495.53;7380787;19;20021;-70
2021/11/15 00:31:22;;;;;;;67.68;33.15;;;;;;;7.83;63.25;101504.25;7382958;19;20039;-70
2021/11/15 00:34:10;;;;;;;71.18;32.00;;;;;;;7.82;63.26;101500.78;7383788;19;20022;-70
2021/11/15 00:36:59;;;;;;;76.43;32.97;;;;;;;7.82;63.48;101503.41;7385795;19;20937;-70
2021/11/15 00:39:47;;;;;;;72.40;32.65;;;;;;;7.88;63.44;101502.47;7390626;19;20455;-70
2021/11/15 00:42:35;;;;;;;70.53;33.03;;;;;;;7.93;63.36;101506.81;7388757;19;20380;-70
2021/11/15 00:45:23;;;;;;;67.03;30.70;;;;;;;7.98;63.31;101498.94;7390089;19;20041;-70
2021/11/15 00:48:10;;;;;;;70.43;33.42;;;;;;;7.99;63.34;101511.13;7387142;19;20498;-69
2021/11/15 00:50:58;;;;;;;70.68;33.88;;;;;;;7.93;63.22;101505.94;7389920;19;20103;-71
2021/11/15 00:53:48;;;;;;;66.95;32.25;;;;;;;7.95;63.50;101509.41;7390104;19;20013;-70
2021/11/15 00:56:36;;;;;;;71.45;33.15;;;;;;;7.99;62.94;101505.88;7389592;19;20108;-70
2021/11/15 00:59:24;;;;;;;68.90;31.65;;;;;;;7.88;63.58;101505.97;7389836;19;20447;-69
2021/11/15 01:02:11;;;;;;;74.07;33.10;;;;;;;7.93;63.21;101505.94;7389355;19;20506;-69
2021/11/15 01:04:59;;;;;;;71.70;33.35;;;;;;;7.96;63.21;101503.31;7389436;19;20059;-70
2021/11/15 01:07:47;;;;;;;81.68;35.72;;;;;;;7.97;63.47;101506.78;7387450;19;20048;-70
2021/11/15 01:10:38;;;;;;;67.90;31.70;;;;;;;8.00;63.33;101510.22;7388604;19;20106;-70
2021/11/15 01:13:27;;;;;;;69.63;32.67;;;;;;;7.98;63.50;101505.91;7385243;19;20112;-70
2021/11/15 01:16:15;;;;;;;71.40;32.67;;;;;;;8.00;63.39;101505.00;7389654;19;20014;-72
2021/11/15 01:19:02;;;;;;;70.40;33.33;;;;;;;8.00;63.62;101502.41;7389339;19;20026;-71
2021/11/15 01:21:51;;;;;;;80.45;33.70;;;;;;;7.91;63.40;101499.84;7386617;19;20043;-71
2021/11/15 01:24:38;;;;;;;73.75;34.47;;;;;;;7.92;63.21;101507.69;7388623;19;20063;-71
2021/11/15 01:27:28;;;;;;;71.07;32.40;;;;;;;7.92;63.02;101507.69;7386021;19;20123;-71
2021/11/15 01:30:18;;;;;;;74.20;33.28;;;;;;;7.82;63.40;101518.19;7386809;19;20021;-71
2021/11/15 01:33:06;;;;;;;77.65;34.00;;;;;;;7.79;63.76;101523.44;7385540;19;20025;-69
2021/11/15 01:35:54;;;;;;;72.45;33.00;;;;;;;7.87;63.26;101524.25;7388742;19;20382;-69
2021/11/15 01:38:41;;;;;;;76.00;33.25;;;;;;;7.86;63.82;101517.28;7388947;19;20029;-72
2021/11/15 01:41:29;;;;;;;74.20;33.85;;;;;;;7.92;63.68;101519.88;7388012;19;20491;-71
2021/11/15 01:44:19;;;;;;;66.38;32.45;;;;;;;7.93;63.31;101519.00;7387216;19;20505;-71
2021/11/15 01:47:07;;;;;;;70.13;32.90;;;;;;;7.97;63.23;101512.00;7387138;19;20590;-69
2021/11/15 01:49:55;;;;;;;70.47;32.22;;;;;;;7.99;63.47;101516.34;7385710;19;20044;-69
2021/11/15 01:52:42;;;;;;;68.45;32.33;;;;;;;8.01;63.59;101517.19;7386270;19;20412;-70
2021/11/15 01:55:31;;;;;;;72.53;34.65;;;;;;;8.08;63.43;101512.78;7386178;19;20052;-70
2021/11/15 01:58:19;;;;;;;69.63;34.53;;;;;;;8.07;63.13;101506.69;7386709;19;20525;-69
2021/11/15 02:01:10;;;;;;;74.05;34.83;;;;;;;7.99;63.62;101513.72;7387482;19;20157;-69
2021/11/15 02:03:58;;;;;;;74.25;33.65;;;;;;;7.94;63.67;101510.28;7387463;19;20030;-70
2021/11/15 02:06:46;;;;;;;82.88;33.15;;;;;;;7.99;63.34;101513.72;7387827;19;20038;-70
2021/11/15 02:09:34;;;;;;;71.30;31.90;;;;;;;7.98;63.15;101516.34;7385008;19;20029;-71
2021/11/15 02:12:21;;;;;;;70.97;32.10;;;;;;;7.97;63.63;101514.63;7385758;19;20049;-71
2021/11/15 02:15:13;;;;;;;73.38;32.45;;;;;;;7.91;63.48;101513.78;7387314;19;20029;-70
2021/11/15 02:18:03;;;;;;;71.70;32.10;;;;;;;7.92;63.60;101517.28;7384048;19;20583;-71
2021/11/15 02:20:56;;;;;;;71.70;33.22;;;;;;;8.01;63.40;101517.19;7386969;19;20017;-70
2021/11/15 02:23:46;;;;;;;66.50;30.38;;;;;;;7.98;63.34;101512.00;7386632;19;20529;-70
2021/11/15 02:26:34;;;;;;;67.07;31.33;;;;;;;7.95;63.62;101517.25;7386546;19;20502;-70
2021/11/15 02:29:29;;;;;;;66.45;31.83;;;;;;;7.87;63.74;101513.81;7386495;19;20207;-70
2021/11/15 02:32:16;;;;;;;63.65;29.75;;;;;;;7.91;63.24;101515.50;7386168;19;20025;-70
2021/11/15 02:35:04;;;;;;;60.55;29.92;;;;;;;7.95;63.35;101506.81;7386279;19;20017;-71
2021/11/15 02:37:54;;;;;;;65.25;31.77;;;;;;;7.93;63.71;101516.41;7384461;19;20029;-70
2021/11/15 02:40:42;;;;;;;59.65;30.88;;;;;;;7.95;63.41;101506.81;7386291;19;20451;-73
2021/11/15 02:43:29;;;;;;;68.22;30.70;;;;;;;7.98;63.03;101514.59;7384373;19;20017;-71
2021/11/15 02:46:17;;;;;;;60.85;30.63;;;;;;;7.99;63.29;101520.69;7386863;19;20048;-71
2021/11/15 02:49:06;;;;;;;63.83;28.23;;;;;;;7.86;63.41;101515.53;7385428;19;20110;-71
2021/11/15 02:51:54;;;;;;;58.25;28.02;;;;;;;7.79;63.73;101526.06;7385412;19;20018;-70
2021/11/15 02:54:44;;;;;;;62.28;28.65;;;;;;;7.69;63.60;101526.97;7384478;19;20025;-70
2021/11/15 02:57:31;;;;;;;60.80;29.52;;;;;;;7.79;63.77;101536.50;7384833;19;20047;-70
2021/11/15 03:00:25;;;;;;;60.50;29.67;;;;;;;7.75;63.77;101535.66;7385851;19;20030;-70
2021/11/15 03:03:14;;;;;;;64.05;29.38;;;;;;;7.63;63.86;101533.97;7384043;19;20033;-70
2021/11/15 03:06:01;;;;;;;53.80;27.88;;;;;;;7.61;64.08;101532.25;7385632;19;20105;-71
2021/11/15 03:08:49;;;;;;;55.22;27.83;;;;;;;7.59;64.19;101534.88;7385168;19;20025;-71
2021/11/15 03:11:40;;;;;;;58.97;28.13;;;;;;;7.53;63.91;101529.69;7385472;19;20025;-71
2021/11/15 03:14:27;;;;;;;51.97;27.77;;;;;;;7.50;64.50;101534.94;7385085;19;20462;-71
2021/11/15 03:17:15;;;;;;;58.15;27.40;;;;;;;7.48;64.15;101539.25;7384475;19;20037;-71
2021/11/15 03:20:02;;;;;;;55.55;27.60;;;;;;;7.44;64.65;101539.28;7384982;19;20051;-71
2021/11/15 03:22:50;;;;;;;52.88;26.05;;;;;;;7.40;64.33;101535.84;7383846;19;20025;-71
2021/11/15 03:25:40;;;;;;;54.40;27.70;;;;;;;7.44;64.21;101536.69;7385250;19;20395;-71
2021/11/15 03:28:33;;;;;;;54.28;25.73;;;;;;;7.48;64.15;101541.88;7382764;19;20052;-71
2021/11/15 03:31:22;;;;;;;52.00;26.75;;;;;;;7.49;64.18;101540.13;7385024;19;20107;-70
2021/11/15 03:34:13;;;;;;;50.92;25.58;;;;;;;7.43;64.48;101538.44;7384481;19;20026;-71
2021/11/15 03:37:01;;;;;;;53.25;25.88;;;;;;;7.39;64.77;101547.16;7384339;19;20127;-72
2021/11/15 03:39:49;;;;;;;51.28;26.52;;;;;;;7.32;64.77;101546.31;7384051;19;20061;-71
2021/11/15 03:42:36;;;;;;;46.85;24.60;;;;;;;7.39;64.40;101552.38;7383457;19;20021;-72
2021/11/15 03:45:27;;;;;;;48.03;26.58;;;;;;;7.33;65.00;101549.78;7383879;19;20020;-71
2021/11/15 03:48:15;;;;;;;46.85;25.15;;;;;;;7.31;64.69;101547.19;7382571;19;20491;-71
2021/11/15 03:51:03;;;;;;;47.17;24.33;;;;;;;7.30;64.85;101540.25;7382707;19;20031;-71
2021/11/15 03:53:51;;;;;;;40.28;23.30;;;;;;;7.26;64.74;101541.09;7385547;19;20502;-71
2021/11/15 03:56:39;;;;;;;38.00;21.35;;;;;;;7.17;64.85;101535.94;7383878;19;20059;-71
2021/11/15 03:59:27;;;;;;;47.47;24.95;;;;;;;7.21;64.92;101542.00;7313084;19;20026;-71
2021/11/15 04:02:18;;;;;;;42.10;23.02;;;;;;;7.29;64.67;101546.34;7382734;19;20061;-70
2021/11/15 04:05:07;;;;;;;43.88;22.58;;;;;;;7.32;64.53;101548.06;7384241;19;20052;-70
2021/11/15 04:07:55;;;;;;;44.88;23.50;;;;;;;7.41;64.53;101550.63;7382567;19;20034;-71
2021/11/15 04:10:45;;;;;;;45.60;22.85;;;;;;;7.50;64.45;101547.97;7381404;19;20415;-71
2021/11/15 04:13:36;;;;;;;45.20;22.58;;;;;;;7.47;64.21;101547.97;7391370;19;20035;-71
2021/11/15 04:16:24;;;;;;;41.35;22.90;;;;;;;7.47;64.16;101553.19;7391231;19;20035;-70
2021/11/15 04:19:19;;;;;;;41.63;22.02;;;;;;;7.42;64.39;101560.19;7390979;19;20030;-69
2021/11/15 04:22:07;;;;;;;40.47;22.75;;;;;;;7.48;63.91;101561.88;7389761;19;20026;-72
2021/11/15 04:24:54;;;;;;;38.63;22.55;;;;;;;7.54;63.66;101557.53;7389556;19;20021;-71
2021/11/15 04:27:42;;;;;;;40.15;21.60;;;;;;;7.54;63.70;101561.88;7389827;19;20494;-71
2021/11/15 04:30:31;;;;;;;41.90;22.58;;;;;;;7.50;63.89;101555.81;7389852;19;20383;-71
2021/11/15 04:33:18;;;;;;;39.28;22.30;;;;;;;7.52;64.09;101558.41;7391442;19;20576;-70
2021/11/15 04:36:09;;;;;;;43.15;21.90;;;;;;;7.49;63.70;101554.03;7389820;19;20022;-71
2021/11/15 04:38:56;;;;;;;41.17;23.57;;;;;;;7.55;64.12;101555.78;7394083;19;20525;-72
2021/11/15 04:41:44;;;;;;;40.42;21.60;;;;;;;7.58;63.43;101561.84;7391900;19;20099;-71
2021/11/15 04:44:32;;;;;;;39.55;21.42;;;;;;;7.57;63.40;101562.72;7392709;19;20029;-69
2021/11/15 04:47:20;;;;;;;42.10;21.80;;;;;;;7.58;63.90;101564.44;7387363;19;20475;-70
2021/11/15 04:50:09;;;;;;;39.63;21.73;;;;;;;7.63;63.78;101564.41;7386711;19;20123;-71
2021/11/15 04:53:00;;;;;;;41.75;20.85;;;;;;;7.64;63.33;101564.41;7390550;19;20028;-71
2021/11/15 04:55:48;;;;;;;45.35;21.73;;;;;;;7.61;63.61;101564.44;7390803;19;20116;-70
2021/11/15 04:58:36;;;;;;;41.85;21.38;;;;;;;7.52;63.57;101567.09;7391763;19;20021;-70
2021/11/15 05:01:23;;;;;;;43.38;23.08;;;;;;;7.48;63.75;101570.56;7390059;19;20017;-70
2021/11/15 05:04:11;;;;;;;44.40;22.05;;;;;;;7.52;63.92;101574.94;7389191;19;20109;-70
2021/11/15 05:06:59;;;;;;;41.70;22.42;;;;;;;7.41;63.64;101579.31;7388549;19;20372;-70
2021/11/15 05:09:49;;;;;;;44.20;23.23;;;;;;;7.45;63.67;101575.81;7388960;19;20100;-70
2021/11/15 05:12:37;;;;;;;39.60;21.70;;;;;;;7.49;63.97;101574.06;7386810;19;20538;-70
2021/11/15 05:15:26;;;;;;;42.58;22.83;;;;;;;7.40;63.82;101580.19;7388757;19;20030;-70
2021/11/15 05:21:27;;;;;;;51.58;24.20;;;;;;;7.53;63.41;101576.66;7388760;19;20376;-70
2021/11/15 05:24:14;;;;;;;40.03;23.63;;;;;;;7.58;63.38;101574.91;7386204;19;20057;-69
2021/11/15 05:27:04;;;;;;;48.25;23.92;;;;;;;7.59;63.22;101573.16;7387107;19;20030;-70
2021/11/15 05:29:53;;;;;;;39.33;21.50;;;;;;;7.59;63.69;101575.75;7386408;19;20498;-71
2021/11/15 05:32:40;;;;;;;46.47;22.35;;;;;;;7.55;63.72;101582.75;7385383;19;20452;-70
2021/11/15 05:35:28;;;;;;;51.58;24.52;;;;;;;7.61;63.57;101589.66;7388619;19;20052;-70
2021/11/15 05:38:15;;;;;;;48.28;23.13;;;;;;;7.63;63.43;101588.78;7386012;19;20029;-70
2021/11/15 05:41:03;;;;;;;53.63;24.95;;;;;;;7.61;63.46;101595.75;7388047;19;20033;-70
2021/11/15 05:43:53;;;;;;;48.60;23.50;;;;;;;7.62;63.21;101594.88;7387829;19;20021;-70
2021/11/15 05:46:41;;;;;;;45.60;23.85;;;;;;;7.62;63.33;101601.84;7387330;19;20109;-70
2021/11/15 05:49:28;;;;;;;49.72;23.73;;;;;;;7.58;63.49;101601.00;7387346;19;20518;-71
2021/11/15 05:52:18;;;;;;;46.20;24.90;;;;;;;7.57;63.54;101604.47;7387164;19;20361;-71
2021/11/15 05:55:06;;;;;;;49.05;24.02;;;;;;;7.60;63.39;101608.81;7387415;19;20021;-71
2021/11/15 05:57:55;;;;;;;47.35;24.17;;;;;;;7.63;63.52;101609.66;7385422;19;20106;-71
2021/11/15 06:00:45;;;;;;;46.58;24.77;;;;;;;7.61;63.52;101611.41;7387121;19;20031;-72
2021/11/15 06:03:33;;;;;;;47.38;24.77;;;;;;;7.60;63.43;101609.69;7386859;19;20021;-71
2021/11/15 06:06:21;;;;;;;43.83;23.65;;;;;;;7.52;63.19;101623.66;7386824;19;20034;-71
2021/11/15 06:09:09;;;;;;;45.60;24.48;;;;;;;7.42;63.60;101627.16;7386985;19;20462;-70
2021/11/15 06:11:57;;;;;;;50.45;26.02;;;;;;;7.34;63.88;101628.06;7384491;19;20013;-62
2021/11/15 06:14:44;;;;;;;49.30;23.85;;;;;;;7.36;63.72;101633.25;7386858;19;20049;-61
2021/11/15 06:17:34;;;;;;;48.97;25.52;;;;;;;7.23;63.88;101639.38;7385486;19;20025;-62
2021/11/15 06:20:22;;;;;;;45.05;22.85;;;;;;;7.21;63.84;101646.34;7386312;19;20289;-62
2021/11/15 06:23:10;;;;;;;43.67;22.33;;;;;;;7.18;63.55;101642.00;7382708;19;20542;-62
2021/11/15 06:25:57;;;;;;;42.40;21.67;;;;;;;7.22;63.56;101645.47;7384551;19;20141;-69
2021/11/15 06:28:46;;;;;;;41.70;21.30;;;;;;;7.16;63.79;101653.31;7386178;19;20045;-70
2021/11/15 06:31:34;;;;;;;51.67;24.52;;;;;;;7.09;63.91;101655.06;7386934;19;20033;-70
2021/11/15 06:34:24;;;;;;;45.78;23.85;;;;;;;7.10;63.95;101659.41;7388000;19;20026;-70
2021/11/15 06:37:12;;;;;;;46.90;22.92;;;;;;;7.18;63.59;101662.00;7386772;19;20210;-69
2021/11/15 06:39:59;;;;;;;47.25;23.08;;;;;;;7.18;63.91;101672.44;7388283;19;20021;-70
2021/11/15 06:42:48;;;;;;;42.33;22.38;;;;;;;7.11;64.05;101670.72;7387694;19;20026;-70
2021/11/15 06:45:36;;;;;;;45.80;24.20;;;;;;;7.17;63.58;101675.91;7388686;19;20029;-70
2021/11/15 06:48:24;;;;;;;50.33;25.23;;;;;;;7.27;64.18;101677.63;7386824;19;20025;-70
2021/11/15 06:51:15;;;;;;;46.88;23.33;;;;;;;7.24;63.57;101677.63;7386577;19;20021;-70
2021/11/15 06:54:03;;;;;;;46.25;23.38;;;;;;;7.27;63.90;101673.25;7388804;19;20474;-71
2021/11/15 06:56:51;;;;;;;47.20;23.80;;;;;;;7.14;64.03;101665.50;7385854;19;20037;-70
2021/11/15 06:59:38;;;;;;;51.90;25.17;;;;;;;7.18;63.74;101672.44;7388204;19;20465;-73
2021/11/15 07:02:26;;;;;;;51.08;23.40;;;;;;;7.17;63.94;101675.91;7386985;19;20521;-71
2021/11/15 07:05:15;;;;;;;53.83;24.13;;;;;;;7.17;64.16;101675.91;7387878;19;20114;-72
2021/11/15 07:08:06;;;;;;;51.08;25.27;;;;;;;7.19;63.94;101675.03;7386622;19;20026;-72
2021/11/15 07:10:53;;;;;;;47.92;23.00;;;;;;;7.32;63.56;101674.16;7387013;19;20045;-72
2021/11/15 07:13:41;;;;;;;51.05;24.83;;;;;;;7.29;63.68;101678.50;7387081;19;20025;-72
2021/11/15 07:16:29;;;;;;;50.10;25.58;;;;;;;7.22;63.90;101679.38;7385095;19;20030;-73
2021/11/15 07:19:16;;;;;;;53.17;26.33;;;;;;;7.21;63.86;101688.94;7387194;19;20026;-71
2021/11/15 07:22:04;;;;;;;54.72;26.02;;;;;;;7.15;63.90;101683.75;7384725;19;20030;-72
2021/11/15 07:24:54;;;;;;;48.42;22.15;;;;;;;7.20;63.94;101683.72;7387418;19;20033;-71
2021/11/15 07:27:42;;;;;;;43.83;23.65;;;;;;;7.29;63.88;101679.38;7386617;19;20452;-72
2021/11/15 07:30:30;;;;;;;40.30;21.23;;;;;;;7.31;64.01;101674.16;7385727;19;20044;-70
2021/11/15 07:33:18;;;;;;;41.50;22.55;;;;;;;7.35;63.80;101675.88;7385322;19;20297;-71
2021/11/15 07:36:05;;;;;;;46.70;24.13;;;;;;;7.44;63.72;101675.84;7386051;19;20494;-73
2021/11/15 07:38:53;;;;;;;54.58;23.77;;;;;;;7.61;63.55;101673.19;7386433;19;20025;-71
2021/11/15 07:41:43;;;;;;;40.08;20.15;;;;;;;7.61;62.99;101674.06;7385612;19;20047;-72
2021/11/15 07:44:31;;;;;;;41.10;21.48;;;;;;;7.70;62.82;101682.72;7387562;19;20098;-72
2021/11/15 07:47:19;;;;;;;46.88;21.52;;;;;;;7.53;63.54;101675.81;7384028;19;20029;-72
2021/11/15 07:50:07;;;;;;;44.08;20.35;;;;;;;7.51;63.41;101672.34;7385194;19;20506;-71
2021/11/15 07:52:55;;;;;;;43.30;21.73;;;;;;;7.54;63.39;101677.56;7386067;19;20027;-71
2021/11/15 07:55:43;;;;;;;47.83;22.58;;;;;;;7.53;63.37;101683.66;7386474;19;20573;-71
2021/11/15 07:58:35;;;;;;;39.92;21.13;;;;;;;7.38;63.50;101688.91;7386721;19;20537;-71
2021/11/15 08:01:22;;;;;;;46.15;22.55;;;;;;;7.42;63.65;101681.94;7383830;19;20029;-71
2021/11/15 08:04:10;;;;;;;44.50;22.77;;;;;;;7.46;63.74;101697.56;7386585;19;20021;-71
2021/11/15 08:06:59;;;;;;;48.25;22.95;;;;;;;7.49;63.75;101687.13;7385614;19;20065;-73
2021/11/15 08:09:47;;;;;;;43.92;22.98;;;;;;;7.60;63.60;101682.75;7387003;19;20604;-72
2021/11/15 08:12:39;;;;;;;43.15;22.23;;;;;;;7.56;63.30;101688.00;7384937;19;20098;-72
2021/11/15 08:15:30;;;;;;;46.38;23.38;;;;;;;7.45;63.40;101681.94;7385600;19;20025;-71
2021/11/15 08:18:18;;;;;;;46.40;23.00;;;;;;;7.36;63.97;101677.59;7384479;19;20388;-71
2021/11/15 08:21:11;;;;;;;45.95;23.08;;;;;;;7.30;64.55;101688.06;7385673;19;20022;-71
2021/11/15 08:24:28;;;;;;;51.45;22.88;;;;;;;7.28;64.48;101676.75;7386120;19;20026;-72
2021/11/15 08:27:16;;;;;;;53.13;23.63;;;;;;;7.39;64.30;101680.22;7383379;19;20025;-62
2021/11/15 08:30:04;;;;;;;51.13;23.17;;;;;;;7.57;64.01;101680.16;7385511;19;20048;-61
2021/11/15 08:32:55;;;;;;;47.28;24.27;;;;;;;7.56;63.96;101690.59;7380730;19;20025;-63
2021/11/15 08:35:44;;;;;;;50.00;23.60;;;;;;;7.74;63.77;101684.47;7379380;19;20028;-62
2021/11/15 08:38:48;;;;;;;48.47;24.08;;;;;;;7.62;64.15;101686.22;7379668;19;20030;-61
2021/11/15 08:41:40;;;;;;;58.25;24.48;;;;;;;7.71;64.13;101690.56;7379332;19;20503;-62
2021/11/15 08:44:29;;;;;;;68.28;26.98;;;;;;;7.55;64.95;101689.75;7378682;19;20029;-62
2021/11/15 08:47:17;;;;;;;67.22;27.95;;;;;;;7.64;64.32;101683.59;7377245;19;20648;-61
2021/11/15 08:50:08;;;;;;;57.17;27.27;;;;;;;7.65;64.68;101688.81;7379824;19;20054;-60
2021/11/15 08:52:56;;;;;;;70.18;29.05;;;;;;;7.69;64.49;101689.66;7377298;19;20119;-60
2021/11/15 08:55:45;;;;;;;71.57;29.48;;;;;;;7.74;64.21;101692.28;7379699;19;20037;-61
2021/11/15 08:58:33;;;;;;;72.65;28.08;;;;;;;7.67;64.56;101680.97;7384130;19;20435;-61
2021/11/15 09:01:22;;;;;;;67.45;27.55;;;;;;;7.71;65.03;101692.31;7385123;19;20053;-60
2021/11/15 09:04:10;;;;;;;68.07;30.27;;;;;;;7.61;65.24;101694.94;7386567;19;20671;-60
2021/11/15 09:07:01;;;;;;;73.25;29.00;;;;;;;7.56;65.47;101691.47;7386138;19;20026;-63
2021/11/15 09:09:50;;;;;;;67.63;28.45;;;;;;;7.56;65.43;101691.47;7386004;19;20033;-61
2021/11/15 09:12:39;;;;;;;78.18;29.23;;;;;;;7.49;65.94;101692.34;7384464;19;20060;-62
2021/11/15 09:15:27;;;;;;;68.38;28.90;;;;;;;7.40;66.20;101684.56;7388226;19;20051;-61
2021/11/15 09:18:15;;;;;;;76.30;28.15;;;;;;;7.45;66.02;101687.13;7387135;19;20018;-62
2021/11/15 09:21:06;;;;;;;71.30;28.92;;;;;;;7.51;65.72;101690.63;7386063;19;20035;-61
2021/11/15 09:23:57;;;;;;;76.00;28.30;;;;;;;7.58;65.46;101683.63;7385703;19;20538;-62
2021/11/15 09:26:46;;;;;;;77.05;30.27;;;;;;;7.69;65.65;101686.19;7385464;19;20149;-62
2021/11/15 09:29:34;;;;;;;69.28;30.77;;;;;;;7.67;65.33;101687.94;7385402;19;20035;-61
2021/11/15 09:32:23;;;;;;;67.65;30.90;;;;;;;7.75;65.50;101680.97;7383742;19;20041;-64
2021/11/15 09:35:12;;;;;;;69.82;28.58;;;;;;;7.87;65.40;101686.13;7384092;19;20371;-63
2021/11/15 09:38:00;;;;;;;69.47;31.10;;;;;;;7.99;65.00;101682.59;7383184;19;20052;-66
2021/11/15 09:40:56;;;;;;;76.88;34.83;;;;;;;8.07;64.82;101679.06;7385805;19;20025;-63
2021/11/15 09:43:44;;;;;;;77.70;28.95;;;;;;;8.08;64.63;101686.03;7385282;19;20038;-66
2021/11/15 09:46:32;;;;;;;83.30;31.45;;;;;;;8.09;64.85;101687.75;7383325;19;20029;-63
2021/11/15 09:49:20;;;;;;;73.68;30.52;;;;;;;8.05;65.10;101691.25;7385261;19;20022;-64
2021/11/15 09:52:11;;;;;;;72.70;30.23;;;;;;;7.92;65.58;101694.84;7384032;19;20026;-63
2021/11/15 09:54:59;;;;;;;82.20;33.22;;;;;;;7.91;65.18;101693.06;7384808;19;20022;-65
2021/11/15 09:57:51;;;;;;;76.78;30.95;;;;;;;7.94;65.59;101698.31;7383561;19;20041;-64
2021/11/15 10:00:44;;;;;;;63.22;30.05;;;;;;;7.98;65.49;101688.69;7384738;19;20024;-63
2021/11/15 10:03:32;;;;;;;72.75;30.40;;;;;;;8.09;65.22;101689.50;7384196;19;20026;-63
2021/11/15 10:06:21;;;;;;;70.05;30.05;;;;;;;8.11;64.96;101685.13;7384343;19;20018;-63
2021/11/15 10:09:09;;;;;;;75.82;29.10;;;;;;;8.06;65.60;101685.16;7382718;19;20399;-65
2021/11/15 10:11:58;;;;;;;89.10;33.60;;;;;;;8.05;65.77;101678.22;7383631;19;20031;-67
2021/11/15 10:15:06;;;;;;;81.32;33.53;;;;;;;8.05;65.71;101680.81;7382599;19;20021;-64
2021/11/15 10:17:54;;;;;;;80.03;33.55;;;;;;;8.18;65.24;101676.41;7381915;19;20025;-64
2021/11/15 10:20:50;;;;;;;81.07;33.47;;;;;;;8.26;64.95;101672.00;7385683;19;20034;-64
2021/11/15 10:23:41;;;;;;;66.47;30.40;;;;;;;8.36;65.22;101675.47;7382691;19;20526;-65
2021/11/15 10:26:37;;;;;;;72.50;32.47;;;;;;;8.44;64.63;101674.53;7383832;19;20025;-64
2021/11/15 10:29:27;;;;;;;80.13;35.53;;;;;;;8.23;65.16;101682.47;7385913;19;20090;-66
2021/11/15 10:32:19;;;;;;;79.25;33.22;;;;;;;8.30;65.52;101678.06;7386522;19;20060;-65
2021/11/15 10:35:06;;;;;;;;;;;;;;;8.30;64.92;101676.31;7388285;19;20344;-66
2021/11/15 10:37:54;;;;;;;81.13;31.23;;;;;;;8.25;65.18;101673.75;7385417;19;20003;-65
2021/11/15 10:40:43;;;;;;;76.65;34.42;;;;;;;8.34;65.21;101679.84;7386502;19;20034;-63
2021/11/15 10:43:34;;;;;;;89.72;36.20;;;;;;;8.51;64.73;101677.94;7386009;19;20052;-63
2021/11/15 10:46:37;;;;;;;84.43;35.53;;;;;;;8.49;64.52;101677.97;7386811;19;20478;-65
2021/11/15 10:49:29;;;;;;;82.07;35.83;;;;;;;8.48;64.52;101680.59;7384907;19;20034;-65
2021/11/15 10:52:19;;;;;;;72.10;33.28;;;;;;;8.51;64.84;101680.56;7385029;19;20025;-66
2021/11/15 10:55:08;;;;;;;79.43;33.92;;;;;;;8.67;64.25;101671.75;7386042;19;20368;-65
2021/11/15 10:57:57;;;;;;;86.85;34.60;;;;;;;8.64;64.32;101669.16;7387140;19;20111;-65
2021/11/15 11:00:51;;;;;;;81.63;34.63;;;;;;;8.61;64.66;101661.34;7382682;19;20042;-65
2021/11/15 11:03:41;;;;;;;85.07;35.63;;;;;;;8.61;64.87;101665.69;7382862;19;20021;-65
2021/11/15 11:06:32;;;;;;;81.85;35.40;;;;;;;8.59;64.51;101668.31;7382335;19;20021;-64
2021/11/15 11:09:35;;;;;;;83.90;35.67;;;;;;;8.75;64.22;101669.09;7380668;19;20056;-67
2021/11/15 11:12:29;;;;;;;79.13;34.92;;;;;;;8.84;64.10;101664.63;7381187;19;20173;-67
2021/11/15 11:15:31;;;;;;;71.07;35.45;;;;;;;8.91;64.02;101659.34;7381072;19;20052;-67
2021/11/15 11:18:22;;;;;;;69.47;32.97;;;;;;;9.04;63.73;101663.59;7381089;19;20022;-67
2021/11/15 11:24:33;;;;;;;68.00;31.20;;;;;;;9.00;63.94;101659.25;7380551;19;20475;-65
2021/11/15 11:27:21;;;;;;;77.10;34.20;;;;;;;9.06;63.42;101664.44;7383971;19;20017;-67
2021/11/15 11:30:11;;;;;;;75.93;32.72;;;;;;;9.10;63.42;101666.13;7384446;19;20026;-64
2021/11/15 11:32:59;;;;;;;72.55;34.17;;;;;;;9.21;63.06;101659.06;7385183;19;20025;-64
2021/11/15 11:35:50;;;;;;;77.50;33.60;;;;;;;9.27;62.82;101653.75;7381755;19;20129;-65
2021/11/15 11:38:40;;;;;;;66.90;30.85;;;;;;;9.29;63.00;101651.97;7380859;19;20121;-65
2021/11/15 11:41:30;;;;;;;57.88;30.15;;;;;;;9.30;62.60;101648.47;7381252;19;20025;-64
2021/11/15 11:44:18;;;;;;;56.25;29.90;;;;;;;9.17;62.95;101646.91;7381459;19;20017;-64
2021/11/15 11:47:09;;;;;;;64.85;29.33;;;;;;;9.16;63.12;101651.25;7380279;19;20025;-68
2021/11/15 11:49:59;;;;;;;44.07;22.13;;;;;;;9.18;63.04;101640.78;7381364;19;20477;-67
2021/11/15 11:53:03;;;;;;;63.63;30.88;;;;;;;9.12;63.11;101638.19;7379025;19;20046;-65
2021/11/15 11:55:52;;;;;;;63.35;32.42;;;;;;;9.30;62.84;101629.28;7384039;19;20119;-67
2021/11/15 11:58:46;;;;;;;61.17;29.70;;;;;;;9.29;62.75;101615.34;7385441;19;20014;-73
2021/11/15 12:01:35;;;;;;;53.92;28.23;;;;;;;9.23;63.06;101611.94;7381052;19;20045;-74
2021/11/15 12:04:25;;;;;;;63.45;30.02;;;;;;;9.25;63.02;101611.03;7384893;19;20025;-70
2021/11/15 12:07:25;;;;;;;58.10;28.20;;;;;;;9.18;63.45;101616.38;7380349;19;20022;-69
2021/11/15 12:10:15;;;;;;;63.08;28.73;;;;;;;9.35;62.84;101604.78;7383060;19;20714;-71
2021/11/15 12:13:06;;;;;;;60.97;27.27;;;;;;;9.44;62.38;101609.06;7381428;19;20056;-70
2021/11/15 12:16:03;;;;;;;66.47;29.02;;;;;;;9.39;62.55;101614.38;7382879;19;20026;-67
2021/11/15 12:18:57;;;;;;;57.70;28.55;;;;;;;9.41;63.02;101611.72;7382253;19;20119;-70
2021/11/15 12:21:46;;;;;;;57.08;27.98;;;;;;;9.28;62.57;101616.22;7381552;19;20342;-71
2021/11/15 12:24:34;;;;;;;53.58;26.90;;;;;;;9.16;62.99;101613.72;7382377;19;20380;-69
2021/11/15 12:27:39;;;;;;;62.00;29.73;;;;;;;9.09;63.32;101605.09;7381331;19;20026;-67
2021/11/15 12:30:34;;;;;;;53.10;27.83;;;;;;;9.09;62.87;101612.06;7383545;19;20107;-66
2021/11/15 12:33:31;;;;;;;62.60;29.27;;;;;;;9.05;63.41;101610.38;7385300;19;20025;-66
2021/11/15 12:36:24;;;;;;;61.67;29.80;;;;;;;9.13;63.23;101608.53;7389542;19;20060;-65
2021/11/15 12:39:13;;;;;;;57.08;27.05;;;;;;;9.25;63.07;101611.03;7387078;19;20025;-68
2021/11/15 12:42:03;;;;;;;57.03;29.17;;;;;;;9.33;63.09;101611.81;7387275;19;20576;-68
2021/11/15 12:45:10;;;;;;;56.38;28.23;;;;;;;9.17;62.96;101610.25;7387879;19;20021;-68
2021/11/15 12:47:58;;;;;;;53.95;28.40;;;;;;;9.29;62.53;101609.25;7386581;19;20029;-65
2021/11/15 12:50:56;;;;;;;60.58;29.38;;;;;;;9.33;62.48;101600.47;7385844;19;20031;-69
2021/11/15 12:53:48;;;;;;;57.78;28.48;;;;;;;9.45;62.59;101603.81;7386781;19;20018;-68
2021/11/15 12:56:38;;;;;;;58.08;29.25;;;;;;;9.42;62.61;101611.72;7391916;19;20508;-69
2021/11/15 12:59:26;;;;;;;58.70;28.35;;;;;;;9.41;62.53;101609.97;7388613;19;20041;-68
2021/11/15 13:02:14;;;;;;;54.55;29.63;;;;;;;9.42;62.10;101609.09;7389038;19;20026;-68
2021/11/15 13:05:03;;;;;;;57.47;28.77;;;;;;;9.47;62.12;101609.91;7390905;19;20030;-67